createdAt,value
2022-12-11T00:04:18.460Z,-0.96
2022-12-11T00:09:20.994Z,-0.70
2022-12-11T00:14:22.457Z,-0.58
2022-12-11T00:19:23.923Z,-0.61
2022-12-11T00:24:25.410Z,-0.72
2022-12-11T00:29:26.923Z,-0.85
2022-12-11T00:34:28.423Z,-0.89
2022-12-11T00:39:29.878Z,-0.84
2022-12-11T00:44:31.388Z,-0.71
2022-12-11T00:49:33.007Z,-0.54
2022-12-11T00:54:34.583Z,-0.39
2022-12-11T00:59:36.019Z,-0.32
2022-12-11T01:04:37.521Z,-0.25
2022-12-11T01:09:57.968Z,-0.21
2022-12-11T01:14:59.406Z,-0.19
2022-12-11T01:20:00.850Z,-0.22
2022-12-11T01:25:02.648Z,-0.28
2022-12-11T01:30:07.476Z,-0.30
2022-12-11T01:35:09.920Z,-0.29
2022-12-11T01:40:16.855Z,-0.23
2022-12-11T01:45:40.322Z,-0.17
2022-12-11T01:50:52.230Z,-0.25
2022-12-11T01:55:57.127Z,-0.38
2022-12-11T02:00:59.240Z,-0.44
2022-12-11T02:06:01.847Z,-0.49
2022-12-11T02:11:21.013Z,-0.47
2022-12-11T02:16:42.126Z,-0.49
2022-12-11T02:21:49.370Z,-0.53
2022-12-11T02:27:08.853Z,-0.62
2022-12-11T02:32:31.310Z,-0.60
2022-12-11T02:37:38.019Z,-0.53
2022-12-11T02:42:42.478Z,-0.53
2022-12-11T02:47:47.159Z,-0.60
2022-12-11T02:52:51.764Z,-0.57
2022-12-11T02:58:00.371Z,-0.55
2022-12-11T03:03:02.435Z,-0.67
2022-12-11T03:08:04.383Z,-0.78
2022-12-11T03:13:05.896Z,-0.80
2022-12-11T03:18:32.100Z,-0.82
2022-12-11T03:23:44.020Z,-0.90
2022-12-11T03:28:59.573Z,-1.03
2022-12-11T03:34:04.462Z,-1.02
2022-12-11T03:39:12.505Z,-0.99
2022-12-11T03:44:15.906Z,-0.95
2022-12-11T03:49:22.068Z,-0.89
2022-12-11T03:54:24.836Z,-0.81
2022-12-11T03:59:26.284Z,-0.80
2022-12-11T04:04:27.826Z,-0.75
2022-12-11T04:09:29.438Z,-0.75
2022-12-11T04:14:49.557Z,-0.68
2022-12-11T04:20:09.518Z,-0.63
2022-12-11T04:25:11.375Z,-0.64
2022-12-11T04:30:16.574Z,-0.63
2022-12-11T04:35:20.110Z,-0.59
2022-12-11T04:40:22.459Z,-0.57
2022-12-11T04:45:23.940Z,-0.54
2022-12-11T04:50:25.972Z,-0.43
2022-12-11T04:55:27.392Z,-0.39
2022-12-11T05:00:28.821Z,-0.36
2022-12-11T05:05:30.328Z,-0.35
2022-12-11T05:10:31.906Z,-0.38
2022-12-11T05:15:33.394Z,-0.47
2022-12-11T05:20:34.888Z,-0.49
2022-12-11T05:25:36.328Z,-0.48
2022-12-11T05:30:37.880Z,-0.49
2022-12-11T05:35:39.363Z,-0.52
2022-12-11T05:40:40.908Z,-0.56
2022-12-11T05:45:42.349Z,-0.54
2022-12-11T05:50:43.904Z,-0.50
2022-12-11T05:55:45.332Z,-0.50
2022-12-11T06:00:47.889Z,-0.59
2022-12-11T06:05:49.453Z,-0.66
2022-12-11T06:10:51.006Z,-0.69
2022-12-11T06:15:53.116Z,-0.65
2022-12-11T06:20:54.726Z,-0.55
2022-12-11T06:25:56.183Z,-0.47
2022-12-11T06:31:01.264Z,-0.57
2022-12-11T06:36:04.431Z,-0.60
2022-12-11T06:41:07.257Z,-0.55
2022-12-11T06:46:11.690Z,-0.49
2022-12-11T06:51:16.265Z,-0.53
2022-12-11T06:56:17.744Z,-0.62
2022-12-11T07:01:27.314Z,-0.75
2022-12-11T07:06:29.838Z,-0.86
2022-12-11T07:11:31.340Z,-0.93
2022-12-11T07:16:32.955Z,-0.99
2022-12-11T07:21:34.692Z,-0.94
2022-12-11T07:26:36.168Z,-0.90
2022-12-11T07:31:37.739Z,-0.90
2022-12-11T07:36:39.355Z,-0.82
2022-12-11T07:41:40.963Z,-0.66
2022-12-11T07:46:42.609Z,-0.51
2022-12-11T07:51:44.124Z,-0.42
2022-12-11T07:56:52.781Z,-0.31
2022-12-11T08:01:55.162Z,-0.24
2022-12-11T08:06:57.780Z,-0.16
2022-12-11T08:11:59.298Z,-0.02
2022-12-11T08:17:02.515Z,0.15
2022-12-11T08:22:04.156Z,0.28
2022-12-11T08:27:05.721Z,0.33
2022-12-11T08:32:12.072Z,0.37
2022-12-11T08:37:13.999Z,0.44
2022-12-11T08:42:15.512Z,0.41
2022-12-11T08:47:17.067Z,0.53
2022-12-11T08:52:18.707Z,0.61
2022-12-11T08:57:20.213Z,0.69
2022-12-11T09:02:21.830Z,0.70
2022-12-11T09:07:23.336Z,0.74
2022-12-11T09:12:24.987Z,0.82
2022-12-11T09:17:26.947Z,0.92
2022-12-11T09:22:28.683Z,1.05
2022-12-11T09:27:30.210Z,1.08
2022-12-11T09:32:31.825Z,1.24
2022-12-11T09:37:34.006Z,1.33
2022-12-11T09:43:03.303Z,1.40
2022-12-11T09:48:05.203Z,1.57
2022-12-11T09:53:19.561Z,1.75
2022-12-11T09:58:21.011Z,1.72
2022-12-11T10:03:37.137Z,2.05
2022-12-11T10:08:41.587Z,2.18
2022-12-11T10:13:46.086Z,2.11
2022-12-11T10:18:49.174Z,2.17
2022-12-11T10:23:58.564Z,2.25
2022-12-11T10:29:01.873Z,2.30
2022-12-11T10:34:11.745Z,2.38
2022-12-11T10:39:22.110Z,2.48
2022-12-11T10:44:28.403Z,2.27
2022-12-11T10:49:31.973Z,2.18
2022-12-11T10:54:38.310Z,2.34
2022-12-11T10:59:50.054Z,2.30
2022-12-11T11:04:53.192Z,2.26
2022-12-11T11:10:14.260Z,2.30
2022-12-11T11:15:18.095Z,2.40
2022-12-11T11:20:22.648Z,2.52
2022-12-11T11:25:27.011Z,2.58
2022-12-11T11:30:38.513Z,2.55
2022-12-11T11:35:45.658Z,2.54
2022-12-11T11:41:14.777Z,2.59
2022-12-11T11:46:38.608Z,2.60
2022-12-11T11:51:46.272Z,2.68
2022-12-11T11:56:53.809Z,2.84
2022-12-11T12:01:57.173Z,2.86
2022-12-11T12:07:10.646Z,2.83
2022-12-11T12:12:37.220Z,2.75
2022-12-11T12:17:56.476Z,2.71
2022-12-11T12:23:14.295Z,2.67
2022-12-11T12:28:27.874Z,2.68
2022-12-11T12:34:21.858Z,2.63
2022-12-11T12:39:48.273Z,2.76
2022-12-11T12:45:07.915Z,2.85
2022-12-11T12:50:13.891Z,2.92
2022-12-11T12:55:29.009Z,2.88
2022-12-11T13:00:30.484Z,2.87
2022-12-11T13:05:34.465Z,2.83
2022-12-11T13:10:38.093Z,2.81
2022-12-11T13:15:43.828Z,2.84
2022-12-11T13:20:51.765Z,2.83
2022-12-11T13:25:59.590Z,2.85
2022-12-11T13:31:24.103Z,2.86
2022-12-11T13:36:37.801Z,2.78
2022-12-11T13:41:40.446Z,2.66
2022-12-11T13:46:44.067Z,2.58
2022-12-11T13:51:53.228Z,2.55
2022-12-11T13:57:00.418Z,2.50
2022-12-11T14:02:12.970Z,2.37
2022-12-11T14:07:20.798Z,2.19
2022-12-11T14:12:22.421Z,2.10
2022-12-11T14:17:27.540Z,2.09
2022-12-11T14:22:30.470Z,2.04
2022-12-11T14:27:32.244Z,1.97
2022-12-11T14:32:45.021Z,1.94
2022-12-11T14:37:46.904Z,1.89
2022-12-11T14:43:00.011Z,1.85
2022-12-11T14:48:07.776Z,1.81
2022-12-11T14:53:29.305Z,1.74
2022-12-11T14:58:33.092Z,1.67
2022-12-11T15:03:37.083Z,1.60
2022-12-11T15:08:38.662Z,1.52
2022-12-11T15:14:02.997Z,1.41
2022-12-11T15:19:04.691Z,1.36
2022-12-11T15:24:07.107Z,1.37
2022-12-11T15:29:30.760Z,1.43
2022-12-11T15:34:43.072Z,1.55
2022-12-11T15:39:44.648Z,1.70
2022-12-11T15:44:46.369Z,1.75
2022-12-11T15:49:47.776Z,1.75
2022-12-11T15:54:49.200Z,1.69
2022-12-11T15:59:52.663Z,1.59
2022-12-11T16:04:54.498Z,1.50
2022-12-11T16:09:55.918Z,1.51
2022-12-11T16:14:57.409Z,1.51
2022-12-11T16:19:58.963Z,1.51
2022-12-11T16:25:00.508Z,1.48
2022-12-11T16:30:01.985Z,1.47
2022-12-11T16:35:03.750Z,1.38
2022-12-11T16:40:06.696Z,1.37
2022-12-11T16:45:12.745Z,1.23
2022-12-11T16:50:15.716Z,1.09
2022-12-11T16:55:21.049Z,1.08
2022-12-11T17:00:22.795Z,1.13
2022-12-11T17:05:24.889Z,1.00
2022-12-11T17:10:26.331Z,0.91
2022-12-11T17:15:27.927Z,0.85
2022-12-11T17:20:29.472Z,0.91
2022-12-11T17:25:30.994Z,1.00
2022-12-11T17:30:32.890Z,1.01
2022-12-11T17:35:34.592Z,1.01
2022-12-11T17:40:40.300Z,0.92
2022-12-11T17:45:43.436Z,0.81
2022-12-11T17:50:47.026Z,0.62
2022-12-11T17:55:49.818Z,0.50
2022-12-11T18:00:55.714Z,0.43
2022-12-11T18:05:57.799Z,0.43
2022-12-11T18:11:13.467Z,0.38
2022-12-11T18:16:18.154Z,0.24
2022-12-11T18:21:22.709Z,0.07
2022-12-11T18:26:24.503Z,-0.06
2022-12-11T18:31:26.206Z,-0.16
2022-12-11T18:36:27.771Z,-0.28
2022-12-11T18:41:29.241Z,-0.39
2022-12-11T18:46:30.734Z,-0.51
2022-12-11T18:51:32.280Z,-0.57
2022-12-11T18:56:33.826Z,-0.66
2022-12-11T19:01:35.455Z,-0.66
2022-12-11T19:06:37.002Z,-0.75
2022-12-11T19:11:40.506Z,-0.93
2022-12-11T19:16:45.390Z,-1.05
2022-12-11T19:21:47.507Z,-1.02
2022-12-11T19:26:49.412Z,-1.02
2022-12-11T19:31:51.651Z,-1.07
2022-12-11T19:36:53.773Z,-1.10
2022-12-11T19:41:55.412Z,-1.14
2022-12-11T19:46:56.998Z,-1.12
2022-12-11T19:51:58.715Z,-0.87
2022-12-11T19:57:00.228Z,-0.62
2022-12-11T20:02:01.750Z,-0.44
2022-12-11T20:07:03.910Z,-0.30
2022-12-11T20:12:10.195Z,-0.20
2022-12-11T20:17:14.627Z,-0.12
2022-12-11T20:22:16.505Z,-0.05
2022-12-11T20:27:18.155Z,-0.04
2022-12-11T20:32:19.727Z,-0.02
2022-12-11T20:37:21.242Z,0.04
2022-12-11T20:42:24.117Z,0.04
2022-12-11T20:47:25.887Z,0.04
2022-12-11T20:52:28.150Z,0.09
2022-12-11T20:57:29.575Z,0.24
2022-12-11T21:02:31.293Z,0.40
2022-12-11T21:07:32.871Z,0.54
2022-12-11T21:12:34.322Z,0.42
2022-12-11T21:17:35.954Z,0.39
2022-12-11T21:22:37.514Z,0.41
2022-12-11T21:27:39.091Z,0.31
2022-12-11T21:32:41.345Z,0.35
2022-12-11T21:37:42.789Z,0.43
2022-12-11T21:42:44.232Z,0.48
2022-12-11T21:47:45.730Z,0.56
2022-12-11T21:52:47.563Z,0.62
2022-12-11T21:57:49.078Z,0.58
2022-12-11T22:02:50.866Z,0.52
2022-12-11T22:07:52.414Z,0.54
2022-12-11T22:12:53.922Z,0.65
2022-12-11T22:17:55.383Z,0.70
2022-12-11T22:22:56.913Z,0.73
2022-12-11T22:27:58.350Z,0.76
2022-12-11T22:32:59.839Z,0.76
2022-12-11T22:38:01.743Z,0.69
2022-12-11T22:43:03.209Z,0.79
2022-12-11T22:48:05.162Z,0.76
2022-12-11T22:53:06.652Z,0.66
2022-12-11T22:58:08.071Z,0.62
2022-12-11T23:03:09.712Z,0.53
2022-12-11T23:08:11.351Z,0.45
2022-12-11T23:13:12.825Z,0.55
2022-12-11T23:18:14.367Z,0.72
2022-12-11T23:23:15.779Z,0.82
2022-12-11T23:28:17.270Z,0.90
2022-12-11T23:33:18.823Z,0.93
2022-12-11T23:38:20.288Z,0.94
2022-12-11T23:43:22.237Z,0.94
2022-12-11T23:48:23.722Z,0.98
2022-12-11T23:53:25.219Z,0.97
2022-12-11T23:58:26.646Z,0.95
